createdAt,value
2023-08-17T00:00:32.271Z,16.4
2023-08-17T00:01:34.341Z,16.4
2023-08-17T00:02:36.271Z,16.4
2023-08-17T00:03:38.363Z,16.4
2023-08-17T00:04:40.273Z,16.4
2023-08-17T00:05:42.299Z,16.4
2023-08-17T00:06:44.298Z,16.3
2023-08-17T00:07:46.294Z,16.4
2023-08-17T00:08:48.272Z,16.3
2023-08-17T00:09:50.265Z,16.3
2023-08-17T00:10:52.301Z,16.3
2023-08-17T00:11:54.258Z,16.2
2023-08-17T00:12:56.259Z,16.2
2023-08-17T00:13:58.258Z,16.2
2023-08-17T00:15:00.289Z,16.1
2023-08-17T00:16:02.304Z,16.1
2023-08-17T00:17:04.252Z,16.1
2023-08-17T00:18:06.319Z,16.1
2023-08-17T00:19:08.658Z,16.1
2023-08-17T00:20:10.282Z,16.1
2023-08-17T00:21:12.254Z,16
2023-08-17T00:22:14.250Z,16
2023-08-17T00:23:16.451Z,16
2023-08-17T00:24:18.281Z,16
2023-08-17T00:25:20.282Z,16.1
2023-08-17T00:26:22.429Z,16
2023-08-17T00:27:24.408Z,16
2023-08-17T00:28:26.245Z,16
2023-08-17T00:29:28.272Z,16
2023-08-17T00:30:30.236Z,16
2023-08-17T00:31:32.257Z,16
2023-08-17T00:32:34.243Z,16
2023-08-17T00:33:36.264Z,16
2023-08-17T00:34:38.262Z,16
2023-08-17T00:35:40.234Z,16
2023-08-17T00:36:42.234Z,16
2023-08-17T00:37:44.229Z,16
2023-08-17T00:38:46.282Z,16
2023-08-17T00:39:48.225Z,16
2023-08-17T00:40:50.225Z,16
2023-08-17T00:41:52.221Z,15.9
2023-08-17T00:42:54.255Z,15.9
2023-08-17T00:43:56.266Z,15.9
2023-08-17T00:44:58.231Z,15.9
2023-08-17T00:46:00.272Z,15.9
2023-08-17T00:47:02.425Z,15.8
2023-08-17T00:48:04.276Z,15.8
2023-08-17T00:49:06.215Z,15.9
2023-08-17T00:50:08.216Z,15.8
2023-08-17T00:51:10.214Z,15.8
2023-08-17T00:52:12.250Z,15.8
2023-08-17T00:53:14.305Z,15.8
2023-08-17T00:54:16.236Z,15.8
2023-08-17T00:55:18.214Z,15.8
2023-08-17T00:56:20.214Z,15.8
2023-08-17T00:57:22.240Z,15.8
2023-08-17T00:58:24.201Z,15.8
2023-08-17T00:59:26.200Z,15.8
2023-08-17T01:00:28.200Z,15.8
2023-08-17T01:01:30.261Z,15.8
2023-08-17T01:02:32.228Z,15.8
2023-08-17T01:03:34.197Z,15.8
2023-08-17T01:04:36.217Z,15.8
2023-08-17T01:05:38.205Z,15.8
2023-08-17T01:06:40.227Z,15.8
2023-08-17T01:07:42.202Z,15.8
2023-08-17T01:08:44.206Z,15.8
2023-08-17T01:09:46.225Z,15.8
2023-08-17T01:10:48.196Z,15.8
2023-08-17T01:11:50.241Z,15.8
2023-08-17T01:12:52.192Z,15.8
2023-08-17T01:13:54.188Z,15.8
2023-08-17T01:14:56.185Z,15.8
2023-08-17T01:15:58.266Z,15.8
2023-08-17T01:17:00.216Z,15.7
2023-08-17T01:18:02.232Z,15.7
2023-08-17T01:19:04.213Z,15.7
2023-08-17T01:20:06.180Z,15.7
2023-08-17T01:21:08.210Z,15.7
2023-08-17T01:22:10.182Z,15.7
2023-08-17T01:23:12.181Z,15.6
2023-08-17T01:24:14.174Z,15.6
2023-08-17T01:25:16.208Z,15.6
2023-08-17T01:26:18.206Z,15.6
2023-08-17T01:27:20.170Z,15.6
2023-08-17T01:28:22.187Z,15.6
2023-08-17T01:29:24.172Z,15.6
2023-08-17T01:30:26.201Z,15.6
2023-08-17T01:31:28.171Z,15.6
2023-08-17T01:32:30.181Z,15.6
2023-08-17T01:33:32.164Z,15.6
2023-08-17T01:34:34.172Z,15.5
2023-08-17T01:35:36.218Z,15.5
2023-08-17T01:36:38.162Z,15.5
2023-08-17T01:37:40.164Z,15.5
2023-08-17T01:38:42.160Z,15.5
2023-08-17T01:39:44.187Z,15.5
2023-08-17T01:40:46.212Z,15.5
2023-08-17T01:41:48.161Z,15.5
2023-08-17T01:42:50.152Z,15.5
2023-08-17T01:43:52.149Z,15.5
2023-08-17T01:44:54.182Z,15.4
2023-08-17T01:45:56.164Z,15.5
2023-08-17T01:46:58.181Z,15.5
2023-08-17T01:48:00.179Z,15.5
2023-08-17T01:49:02.186Z,15.5
2023-08-17T01:50:04.180Z,15.5
2023-08-17T01:51:06.144Z,15.5
2023-08-17T01:52:08.142Z,15.5
2023-08-17T01:53:10.142Z,15.5
2023-08-17T01:54:12.178Z,15.6
2023-08-17T01:55:14.141Z,15.6
2023-08-17T01:56:16.161Z,15.6
2023-08-17T01:57:18.142Z,15.6
2023-08-17T01:58:20.169Z,15.6
2023-08-17T01:59:22.169Z,15.6
2023-08-17T02:00:24.140Z,15.6
2023-08-17T02:01:26.130Z,15.6
2023-08-17T02:02:28.142Z,15.6
2023-08-17T02:03:30.165Z,15.6
2023-08-17T02:04:32.128Z,15.6
2023-08-17T02:05:34.125Z,15.6
2023-08-17T02:06:36.125Z,15.6
2023-08-17T02:07:38.121Z,15.6
2023-08-17T02:08:40.152Z,15.6
2023-08-17T02:09:42.264Z,15.6
2023-08-17T02:10:44.118Z,15.6
2023-08-17T02:11:46.140Z,15.6
2023-08-17T02:12:48.154Z,15.6
2023-08-17T02:13:50.116Z,15.6
2023-08-17T02:14:52.113Z,15.6
2023-08-17T02:15:54.110Z,15.6
2023-08-17T02:16:56.176Z,15.6
2023-08-17T02:17:58.173Z,15.6
2023-08-17T02:19:00.109Z,15.6
2023-08-17T02:20:02.114Z,15.6
2023-08-17T02:21:04.127Z,15.6
2023-08-17T02:22:06.158Z,15.6
2023-08-17T02:23:08.135Z,15.6
2023-08-17T02:24:10.103Z,15.6
2023-08-17T02:25:12.098Z,15.5
2023-08-17T02:26:14.101Z,15.5
2023-08-17T02:27:16.506Z,15.5
2023-08-17T02:28:18.098Z,15.5
2023-08-17T02:29:20.102Z,15.5
2023-08-17T02:30:22.096Z,15.6
2023-08-17T02:31:24.124Z,15.6
2023-08-17T02:32:26.171Z,15.6
2023-08-17T02:33:28.971Z,15.6
2023-08-17T02:34:30.631Z,15.6
2023-08-17T02:35:32.619Z,15.6
2023-08-17T02:36:36.108Z,15.6
2023-08-17T02:37:37.020Z,15.6
2023-08-17T02:38:39.041Z,15.6
2023-08-17T02:39:41.022Z,15.6
2023-08-17T02:40:43.046Z,15.6
2023-08-17T02:41:45.053Z,15.6
2023-08-17T02:42:47.040Z,15.6
2023-08-17T02:43:49.014Z,15.6
2023-08-17T02:44:51.011Z,15.6
2023-08-17T02:45:53.062Z,15.6
2023-08-17T02:46:55.006Z,15.6
2023-08-17T02:47:57.098Z,15.6
2023-08-17T02:48:59.005Z,15.6
2023-08-17T02:50:01.060Z,15.6
2023-08-17T02:51:03.039Z,15.6
2023-08-17T02:52:05.007Z,15.6
2023-08-17T02:53:07.001Z,15.6
2023-08-17T02:54:09.004Z,15.6
2023-08-17T02:55:11.028Z,15.6
2023-08-17T02:56:13.040Z,15.6
2023-08-17T02:57:14.995Z,15.6
2023-08-17T02:58:17.023Z,15.6
2023-08-17T02:59:19.030Z,15.6
2023-08-17T03:00:21.021Z,15.6
2023-08-17T03:01:23.004Z,15.6
2023-08-17T03:02:25.291Z,15.6
2023-08-17T03:03:27.037Z,15.6
2023-08-17T03:04:29.020Z,15.6
2023-08-17T03:05:30.984Z,15.6
2023-08-17T03:06:32.983Z,15.6
2023-08-17T03:07:34.998Z,15.6
2023-08-17T03:08:37.014Z,15.6
2023-08-17T03:09:39.036Z,15.6
2023-08-17T03:10:40.978Z,15.6
2023-08-17T03:11:42.977Z,15.6
2023-08-17T03:12:44.979Z,15.6
2023-08-17T03:13:47.035Z,15.6
2023-08-17T03:14:48.972Z,15.6
2023-08-17T03:15:50.974Z,15.6
2023-08-17T03:16:52.971Z,15.6
2023-08-17T03:17:55.060Z,15.6
2023-08-17T03:18:57.024Z,15.6
2023-08-17T03:19:58.974Z,15.5
2023-08-17T03:21:00.969Z,15.5
2023-08-17T03:22:02.964Z,15.5
2023-08-17T03:23:05.003Z,15.5
2023-08-17T03:24:06.963Z,15.5
2023-08-17T03:25:08.962Z,15.5
2023-08-17T03:26:10.963Z,15.5
2023-08-17T03:27:12.958Z,15.5
2023-08-17T03:28:14.987Z,15.5
2023-08-17T03:29:16.982Z,15.5
2023-08-17T03:30:18.961Z,15.5
2023-08-17T03:31:20.955Z,15.4
2023-08-17T03:32:22.984Z,15.4
2023-08-17T03:33:24.959Z,15.4
2023-08-17T03:34:26.953Z,15.4
2023-08-17T03:35:28.955Z,15.4
2023-08-17T03:36:30.990Z,15.4
2023-08-17T03:37:33.430Z,15.4
2023-08-17T03:38:34.950Z,15.3
2023-08-17T03:39:36.950Z,15.3
2023-08-17T03:40:38.948Z,15.3
2023-08-17T03:41:40.978Z,15.3
2023-08-17T03:42:42.944Z,15.3
2023-08-17T03:43:44.954Z,15.3
2023-08-17T03:44:46.978Z,15.3
2023-08-17T03:45:49.053Z,15.3
2023-08-17T03:46:50.978Z,15.3
2023-08-17T03:47:52.949Z,15.2
2023-08-17T03:48:54.938Z,15.2
2023-08-17T03:49:56.931Z,15.2
2023-08-17T03:50:58.968Z,15.2
2023-08-17T03:52:00.961Z,15.2
2023-08-17T03:53:02.931Z,15.2
2023-08-17T03:54:04.926Z,15.2
2023-08-17T03:55:06.933Z,15.2
2023-08-17T03:56:08.959Z,15.2
2023-08-17T03:57:10.927Z,15.2
2023-08-17T03:58:12.934Z,15.1
2023-08-17T03:59:14.923Z,15.2
2023-08-17T04:00:16.947Z,15.1
2023-08-17T04:01:18.976Z,15.1
2023-08-17T04:02:20.929Z,15.1
2023-08-17T04:03:22.922Z,15.1
2023-08-17T04:04:24.980Z,15.1
2023-08-17T04:05:26.948Z,15.1
2023-08-17T04:06:28.919Z,15.1
2023-08-17T04:07:30.914Z,15.1
2023-08-17T04:08:32.922Z,15.1
2023-08-17T04:09:34.961Z,15.1
2023-08-17T04:10:36.942Z,15.1
2023-08-17T04:11:38.910Z,15.1
2023-08-17T04:12:40.923Z,15.1
2023-08-17T04:13:42.915Z,15.1
2023-08-17T04:14:44.940Z,15.1
2023-08-17T04:15:46.994Z,15
2023-08-17T04:16:48.928Z,15
2023-08-17T04:17:50.932Z,15
2023-08-17T04:18:52.955Z,15
2023-08-17T04:19:54.936Z,15
2023-08-17T04:20:56.907Z,15
2023-08-17T04:21:58.973Z,15
2023-08-17T04:23:00.897Z,15
2023-08-17T04:24:02.933Z,15
2023-08-17T04:25:04.905Z,15
2023-08-17T04:26:06.894Z,15
2023-08-17T04:27:08.898Z,15
2023-08-17T04:28:10.923Z,15
2023-08-17T04:29:12.927Z,15
2023-08-17T04:30:14.890Z,15
2023-08-17T04:31:16.943Z,15
2023-08-17T04:32:18.889Z,15
2023-08-17T04:33:20.919Z,15
2023-08-17T04:34:22.885Z,15
2023-08-17T04:35:24.894Z,15
2023-08-17T04:36:26.891Z,15
2023-08-17T04:37:29.072Z,15
2023-08-17T04:38:30.916Z,15
2023-08-17T04:39:32.876Z,15
2023-08-17T04:40:34.882Z,15
2023-08-17T04:41:36.891Z,15
2023-08-17T04:42:38.912Z,15
2023-08-17T04:43:40.870Z,15
2023-08-17T04:44:42.870Z,15
2023-08-17T04:45:44.892Z,15
2023-08-17T04:46:46.892Z,15
2023-08-17T04:47:48.920Z,15
2023-08-17T04:48:50.871Z,15
2023-08-17T04:49:52.862Z,15
2023-08-17T04:50:54.863Z,15
2023-08-17T04:51:56.896Z,15
2023-08-17T04:52:58.892Z,15
2023-08-17T04:54:00.864Z,15
2023-08-17T04:55:02.856Z,15
2023-08-17T04:56:04.858Z,15
2023-08-17T04:57:06.896Z,15.1
2023-08-17T04:58:08.859Z,15
2023-08-17T04:59:10.860Z,15
2023-08-17T05:00:12.858Z,15
2023-08-17T05:01:14.995Z,15.1
2023-08-17T05:02:17.147Z,15
2023-08-17T05:03:24.570Z,15
2023-08-17T05:04:34.690Z,15
2023-08-17T05:05:36.688Z,15
2023-08-17T05:06:38.715Z,15
2023-08-17T05:07:40.686Z,15
2023-08-17T05:08:42.678Z,15.1
2023-08-17T05:09:44.682Z,15.1
2023-08-17T05:10:46.718Z,15.1
2023-08-17T05:11:48.711Z,15
2023-08-17T05:12:50.691Z,15.1
2023-08-17T05:13:52.677Z,15
2023-08-17T05:14:54.674Z,15.1
2023-08-17T05:15:56.722Z,15
2023-08-17T05:16:58.692Z,15
2023-08-17T05:18:00.711Z,15.1
2023-08-17T05:19:02.685Z,15
2023-08-17T05:20:04.673Z,15.1
2023-08-17T05:21:06.700Z,15.1
2023-08-17T05:22:08.674Z,15.1
2023-08-17T05:23:10.667Z,15.1
2023-08-17T05:24:12.672Z,15.1
2023-08-17T05:25:14.696Z,15.1
2023-08-17T05:26:17.053Z,15.1
2023-08-17T05:27:18.659Z,15.1
2023-08-17T05:28:21.128Z,15.1
2023-08-17T05:29:22.696Z,15.1
2023-08-17T05:30:24.687Z,15.1
2023-08-17T05:31:26.716Z,15.1
2023-08-17T05:32:28.683Z,15.1
2023-08-17T05:33:30.680Z,15.1
2023-08-17T05:34:33.192Z,15.1
2023-08-17T05:35:34.817Z,15.2
2023-08-17T05:36:36.771Z,15.2
2023-08-17T05:37:38.887Z,15.2
2023-08-17T05:38:40.654Z,15.2
2023-08-17T05:39:42.693Z,15.2
2023-08-17T05:40:44.650Z,15.2
2023-08-17T05:41:46.641Z,15.2
2023-08-17T05:42:48.640Z,15.2
2023-08-17T05:43:50.900Z,15.2
2023-08-17T05:44:52.679Z,15.2
2023-08-17T05:45:54.645Z,15.2
2023-08-17T05:46:56.633Z,15.2
2023-08-17T05:47:58.653Z,15.2
2023-08-17T05:49:00.688Z,15.2
2023-08-17T05:50:02.634Z,15.3
2023-08-17T05:51:04.631Z,15.3
2023-08-17T05:52:06.880Z,15.3
2023-08-17T05:53:09.037Z,15.3
2023-08-17T05:54:10.659Z,15.3
2023-08-17T05:55:12.624Z,15.4
2023-08-17T05:56:14.625Z,15.4
2023-08-17T05:57:16.621Z,15.4
2023-08-17T05:58:18.656Z,15.4
2023-08-17T05:59:20.686Z,15.5
2023-08-17T06:00:22.617Z,15.5
2023-08-17T06:01:24.621Z,15.4
2023-08-17T06:02:26.690Z,15.4
2023-08-17T06:03:28.683Z,15.4
2023-08-17T06:04:31.822Z,15.4
2023-08-17T06:05:33.416Z,15.4
2023-08-17T06:06:34.687Z,15.4
2023-08-17T06:07:36.722Z,15.4
2023-08-17T06:08:38.760Z,15.4
2023-08-17T06:09:40.688Z,15.4
2023-08-17T06:10:42.678Z,15.4
2023-08-17T06:11:44.782Z,15.5
2023-08-17T06:12:46.710Z,15.5
2023-08-17T06:13:48.730Z,15.4
2023-08-17T06:14:50.679Z,15.5
2023-08-17T06:15:52.672Z,15.5
2023-08-17T06:16:54.720Z,15.4
2023-08-17T06:17:56.754Z,15.4
2023-08-17T06:18:58.670Z,15.4
2023-08-17T06:20:00.711Z,15.4
2023-08-17T06:21:02.686Z,15.4
2023-08-17T06:22:04.698Z,15.4
2023-08-17T06:23:06.674Z,15.4
2023-08-17T06:24:08.664Z,15.5
2023-08-17T06:25:10.766Z,15.5
2023-08-17T06:26:12.699Z,15.5
2023-08-17T06:27:14.692Z,15.5
2023-08-17T06:28:16.657Z,15.5
2023-08-17T06:29:18.659Z,15.5
2023-08-17T06:30:20.652Z,15.5
2023-08-17T06:31:22.702Z,15.5
2023-08-17T06:32:24.876Z,15.6
2023-08-17T06:33:26.666Z,15.6
2023-08-17T06:34:28.650Z,15.6
2023-08-17T06:35:30.703Z,15.6
2023-08-17T06:36:32.678Z,15.6
2023-08-17T06:37:34.979Z,15.6
2023-08-17T06:38:36.974Z,15.6
2023-08-17T06:39:38.639Z,15.6
2023-08-17T06:40:40.679Z,15.7
2023-08-17T06:41:42.646Z,15.7
2023-08-17T06:42:44.642Z,15.8
2023-08-17T06:43:49.456Z,15.8
2023-08-17T06:44:49.991Z,15.8
2023-08-17T06:45:52.100Z,15.8
2023-08-17T06:46:53.970Z,15.8
2023-08-17T06:47:56.218Z,15.8
2023-08-17T06:48:58.621Z,15.7
2023-08-17T06:50:00.351Z,15.7
2023-08-17T06:51:02.209Z,15.7
2023-08-17T06:52:04.290Z,15.7
2023-08-17T06:53:06.140Z,15.8
2023-08-17T06:54:07.958Z,15.7
2023-08-17T06:55:10.121Z,15.8
2023-08-17T06:56:12.179Z,15.8
2023-08-17T06:57:14.021Z,15.8
2023-08-17T06:58:16.178Z,15.8
2023-08-17T06:59:19.054Z,15.8
2023-08-17T07:00:20.085Z,15.8
2023-08-17T07:01:22.165Z,15.9
2023-08-17T07:02:24.046Z,16
2023-08-17T07:03:26.140Z,16
2023-08-17T07:04:28.371Z,16
2023-08-17T07:05:30.770Z,16
2023-08-17T07:06:32.243Z,16
2023-08-17T07:07:34.571Z,16
2023-08-17T07:08:36.323Z,16
2023-08-17T07:09:38.946Z,16.1
2023-08-17T07:10:40.401Z,16.1
2023-08-17T07:11:42.617Z,16.1
2023-08-17T07:12:45.166Z,16.1
2023-08-17T07:13:47.162Z,16.1
2023-08-17T07:14:49.470Z,16.1
2023-08-17T07:15:51.224Z,16.1
2023-08-17T07:16:53.274Z,16.1
2023-08-17T07:17:55.287Z,16.2
2023-08-17T07:18:57.391Z,16.2
2023-08-17T07:21:17.119Z,16.2
2023-08-17T07:22:19.437Z,16.2
2023-08-17T07:23:21.376Z,16.2
2023-08-17T07:24:23.123Z,16.2
2023-08-17T07:25:25.304Z,16.2
2023-08-17T07:26:27.247Z,16.2
2023-08-17T07:27:29.804Z,16.2
2023-08-17T07:28:32.164Z,16.2
2023-08-17T07:29:33.200Z,16.2
2023-08-17T07:30:35.252Z,16.2
2023-08-17T07:31:37.219Z,16.2
2023-08-17T07:32:39.386Z,16.2
2023-08-17T07:33:41.255Z,16.3
2023-08-17T07:34:43.294Z,16.4
2023-08-17T07:35:45.330Z,16.4
2023-08-17T07:36:47.221Z,16.3
2023-08-17T07:37:56.124Z,16.4
2023-08-17T07:39:09.824Z,16.4
2023-08-17T07:40:12.047Z,16.4
2023-08-17T07:41:13.794Z,16.3
2023-08-17T07:42:16.079Z,16.3
2023-08-17T07:43:18.061Z,16.3
2023-08-17T07:44:20.127Z,16.3
2023-08-17T07:45:21.952Z,16.3
2023-08-17T07:46:23.728Z,16.3
2023-08-17T07:47:26.217Z,16.3
2023-08-17T07:48:28.235Z,16.3
2023-08-17T07:49:32.431Z,16.3
2023-08-17T07:50:33.846Z,16.4
2023-08-17T07:51:35.933Z,16.4
2023-08-17T07:52:37.853Z,16.4
2023-08-17T07:53:39.874Z,16.4
2023-08-17T07:54:41.841Z,16.4
2023-08-17T07:55:43.880Z,16.4
2023-08-17T07:56:45.875Z,16.4
2023-08-17T07:57:47.839Z,16.4
2023-08-17T07:58:49.839Z,16.4
2023-08-17T07:59:51.836Z,16.4
2023-08-17T08:00:53.895Z,16.4
2023-08-17T08:01:55.855Z,16.4
2023-08-17T08:02:57.874Z,16.4
2023-08-17T08:03:59.844Z,16.4
2023-08-17T08:05:01.842Z,16.5
2023-08-17T08:06:03.860Z,16.5
2023-08-17T08:07:06.026Z,16.5
2023-08-17T08:08:07.839Z,16.5
2023-08-17T08:09:09.850Z,16.5
2023-08-17T08:10:11.854Z,16.5
2023-08-17T08:11:13.867Z,16.5
2023-08-17T08:12:15.819Z,16.6
2023-08-17T08:13:18.161Z,16.5
2023-08-17T08:14:19.815Z,16.6
2023-08-17T08:15:21.853Z,16.6
2023-08-17T08:16:23.844Z,16.6
2023-08-17T08:17:26.086Z,16.6
2023-08-17T08:18:27.813Z,16.6
2023-08-17T08:19:29.848Z,16.7
2023-08-17T08:20:31.852Z,16.7
2023-08-17T08:21:33.810Z,16.7
2023-08-17T08:22:35.809Z,16.7
2023-08-17T08:23:37.817Z,16.7
2023-08-17T08:24:40.545Z,16.7
2023-08-17T08:25:43.517Z,16.7
2023-08-17T08:26:45.627Z,16.7
2023-08-17T08:27:47.517Z,16.7
2023-08-17T08:28:49.730Z,16.8
2023-08-17T08:29:51.545Z,16.8
2023-08-17T08:30:53.507Z,16.8
2023-08-17T08:31:55.506Z,16.8
2023-08-17T08:32:57.543Z,16.9
2023-08-17T08:33:59.549Z,16.9
2023-08-17T08:35:01.505Z,16.9
2023-08-17T08:36:03.509Z,16.9
2023-08-17T08:37:05.527Z,16.9
2023-08-17T08:38:07.536Z,16.9
2023-08-17T08:39:09.549Z,17
2023-08-17T08:40:11.550Z,17
2023-08-17T08:41:13.507Z,17
2023-08-17T08:42:15.501Z,17
2023-08-17T08:43:17.549Z,17
2023-08-17T08:44:19.576Z,17
2023-08-17T08:45:21.493Z,17
2023-08-17T08:46:23.510Z,17
2023-08-17T08:47:25.861Z,17
2023-08-17T08:48:27.528Z,17
2023-08-17T08:49:29.512Z,17
2023-08-17T08:50:31.513Z,17
2023-08-17T08:51:33.642Z,17
2023-08-17T08:52:35.529Z,17.1
2023-08-17T08:53:37.499Z,17.1
2023-08-17T08:54:39.488Z,17.1
2023-08-17T08:55:45.878Z,17.1
2023-08-17T08:56:48.162Z,17.2
2023-08-17T08:57:51.970Z,17.2
2023-08-17T08:58:54.476Z,17.2
2023-08-17T08:59:58.168Z,17.2
2023-08-17T09:00:58.935Z,17.3
2023-08-17T09:02:00.921Z,17.2
2023-08-17T09:03:02.893Z,17.3
2023-08-17T09:04:04.880Z,17.4
2023-08-17T09:05:06.899Z,17.4
2023-08-17T09:06:09.990Z,17.4
2023-08-17T09:07:10.923Z,17.4
2023-08-17T09:08:17.327Z,17.4
2023-08-17T09:09:18.344Z,17.4
2023-08-17T09:10:20.339Z,17.4
2023-08-17T09:11:22.390Z,17.5
2023-08-17T09:12:37.895Z,17.5
2023-08-17T09:13:41.928Z,17.5
2023-08-17T09:14:43.926Z,17.5
2023-08-17T09:15:45.953Z,17.5
2023-08-17T09:16:47.998Z,17.5
2023-08-17T09:17:50.114Z,17.6
2023-08-17T09:18:52.095Z,17.6
2023-08-17T09:19:54.120Z,17.6
2023-08-17T09:20:56.159Z,17.7
2023-08-17T09:21:58.029Z,17.8
2023-08-17T09:22:59.910Z,17.8
2023-08-17T09:24:02.020Z,17.8
2023-08-17T09:25:03.906Z,17.8
2023-08-17T09:26:06.258Z,17.8
2023-08-17T09:27:10.619Z,17.8
2023-08-17T09:28:13.174Z,17.9
2023-08-17T09:29:15.843Z,17.8
2023-08-17T09:30:19.449Z,17.8
2023-08-17T09:31:20.276Z,17.8
2023-08-17T09:32:22.238Z,17.8
2023-08-17T09:33:24.233Z,17.8
2023-08-17T09:34:26.268Z,17.8
2023-08-17T09:35:28.378Z,17.8
2023-08-17T09:36:30.237Z,17.8
2023-08-17T09:37:32.236Z,17.8
2023-08-17T09:38:34.236Z,17.9
2023-08-17T09:39:36.261Z,17.9
2023-08-17T09:40:38.233Z,17.9
2023-08-17T09:41:41.575Z,18
2023-08-17T09:42:44.264Z,18
2023-08-17T09:43:46.416Z,18
2023-08-17T09:44:48.495Z,18
2023-08-17T09:45:50.490Z,18
2023-08-17T09:46:52.590Z,18
2023-08-17T09:47:54.610Z,18
2023-08-17T09:48:56.516Z,18
2023-08-17T09:49:58.611Z,18
2023-08-17T09:51:00.553Z,18
2023-08-17T09:52:02.602Z,18
2023-08-17T09:53:06.319Z,18
2023-08-17T09:54:08.470Z,18.1
2023-08-17T09:55:10.323Z,18.1
2023-08-17T09:57:22.627Z,18.1
2023-08-17T09:58:23.923Z,18.1
2023-08-17T09:59:25.813Z,18.1
2023-08-17T10:00:27.897Z,18
2023-08-17T10:01:29.886Z,18.1
2023-08-17T10:02:31.836Z,18
2023-08-17T10:03:33.839Z,18.1
2023-08-17T10:04:35.961Z,18.1
2023-08-17T10:05:37.726Z,18.1
2023-08-17T10:06:39.967Z,18
2023-08-17T10:07:41.940Z,18
2023-08-17T10:08:43.816Z,18
2023-08-17T10:09:49.863Z,18
2023-08-17T10:10:56.379Z,18
2023-08-17T10:13:06.006Z,18
2023-08-17T10:14:11.592Z,18
2023-08-17T10:16:20.406Z,18
2023-08-17T10:17:22.379Z,18
2023-08-17T10:18:24.304Z,18
2023-08-17T10:19:26.474Z,18
2023-08-17T10:20:28.488Z,18.1
2023-08-17T10:21:30.480Z,18.1
2023-08-17T10:22:32.506Z,18.1
2023-08-17T10:23:34.416Z,18.1
2023-08-17T10:24:36.403Z,18.1
2023-08-17T10:25:38.411Z,18.1
2023-08-17T10:26:41.098Z,18.1
2023-08-17T10:27:42.240Z,18.1
2023-08-17T10:28:44.241Z,18.1
2023-08-17T10:29:46.264Z,18
2023-08-17T10:30:48.268Z,18
2023-08-17T10:31:50.293Z,18
2023-08-17T10:32:52.342Z,18
2023-08-17T10:33:54.329Z,18
2023-08-17T10:34:56.485Z,18
2023-08-17T10:35:58.260Z,18
2023-08-17T10:37:00.349Z,18
2023-08-17T10:38:02.231Z,18
2023-08-17T10:39:04.228Z,17.9
2023-08-17T10:40:06.262Z,17.9
2023-08-17T10:41:08.253Z,17.9
2023-08-17T10:42:10.376Z,17.9
2023-08-17T10:43:12.221Z,17.9
2023-08-17T10:44:14.222Z,17.9
2023-08-17T10:45:16.456Z,18
2023-08-17T10:46:18.596Z,18
2023-08-17T10:47:20.216Z,18
2023-08-17T10:48:22.278Z,18
2023-08-17T10:49:24.246Z,18
2023-08-17T10:50:26.243Z,18
2023-08-17T10:51:28.218Z,18
2023-08-17T10:52:30.214Z,18
2023-08-17T10:53:32.209Z,18.1
2023-08-17T10:54:34.296Z,18.1
2023-08-17T10:55:36.205Z,18.1
2023-08-17T10:56:38.389Z,18.1
2023-08-17T10:57:40.205Z,18.1
2023-08-17T10:58:42.236Z,18.1
2023-08-17T10:59:44.234Z,18.1
2023-08-17T11:00:46.370Z,18.1
2023-08-17T11:01:48.444Z,18.2
2023-08-17T11:02:50.229Z,18.1
2023-08-17T11:03:53.365Z,18.2
2023-08-17T11:04:54.317Z,18.2
2023-08-17T11:05:56.197Z,18.2
2023-08-17T11:06:58.252Z,18.2
2023-08-17T11:08:00.209Z,18.2
2023-08-17T11:09:02.243Z,18.2
2023-08-17T11:10:04.233Z,18.2
2023-08-17T11:11:06.193Z,18.2
2023-08-17T11:12:09.191Z,18.2
2023-08-17T11:13:10.222Z,18.2
2023-08-17T11:14:12.181Z,18.2
2023-08-17T11:15:14.183Z,18.2
2023-08-17T11:16:18.652Z,18.2
2023-08-17T11:17:19.776Z,18.2
2023-08-17T11:18:21.695Z,18.2
2023-08-17T11:19:23.686Z,18.2
2023-08-17T11:20:25.659Z,18.2
2023-08-17T11:21:27.669Z,18.2
2023-08-17T11:22:29.933Z,18.3
2023-08-17T11:23:31.712Z,18.3
2023-08-17T11:24:33.650Z,18.2
2023-08-17T11:25:35.654Z,18.2
2023-08-17T11:26:37.650Z,18.2
2023-08-17T11:27:39.683Z,18.3
2023-08-17T11:28:43.245Z,18.2
2023-08-17T11:29:44.788Z,18.2
2023-08-17T11:30:47.559Z,18.2
2023-08-17T11:31:50.888Z,18.2
2023-08-17T11:32:54.069Z,18.2
2023-08-17T11:33:56.333Z,18.2
2023-08-17T11:34:59.241Z,18.2
2023-08-17T11:36:04.082Z,18.1
2023-08-17T11:37:05.539Z,18.2
2023-08-17T11:38:08.696Z,18.2
2023-08-17T11:39:10.989Z,18.2
2023-08-17T11:40:13.459Z,18.2
2023-08-17T11:42:22.499Z,18.2
2023-08-17T11:43:23.203Z,18.2
2023-08-17T11:44:25.342Z,18.2
2023-08-17T11:45:28.152Z,18.2
2023-08-17T11:46:29.952Z,18.3
2023-08-17T11:47:32.992Z,18.3
2023-08-17T11:48:36.825Z,18.3
2023-08-17T11:49:38.822Z,18.4
2023-08-17T11:50:40.916Z,18.4
2023-08-17T11:51:43.489Z,18.4
2023-08-17T11:52:46.472Z,18.4
2023-08-17T11:53:50.060Z,18.5
2023-08-17T11:54:52.583Z,18.5
2023-08-17T11:55:56.674Z,18.5
2023-08-17T11:57:05.283Z,18.5
2023-08-17T11:58:10.418Z,18.6
2023-08-17T11:59:11.351Z,18.6
2023-08-17T12:00:13.837Z,18.6
2023-08-17T12:01:15.387Z,18.6
2023-08-17T12:02:17.680Z,18.6
2023-08-17T12:03:19.416Z,18.6
2023-08-17T12:04:21.486Z,18.6
2023-08-17T12:05:23.452Z,18.6
2023-08-17T12:06:25.755Z,18.6
2023-08-17T12:07:27.491Z,18.6
2023-08-17T12:08:32.120Z,18.6
2023-08-17T12:09:32.491Z,18.6
2023-08-17T12:10:34.495Z,18.6
2023-08-17T12:11:36.461Z,18.6
2023-08-17T12:12:38.538Z,18.6
2023-08-17T12:13:40.594Z,18.6
2023-08-17T12:14:43.869Z,18.6
2023-08-17T12:15:45.677Z,18.6
2023-08-17T12:16:47.668Z,18.6
2023-08-17T12:17:49.769Z,18.5
2023-08-17T12:18:51.769Z,18.5
2023-08-17T12:19:54.765Z,18.5
2023-08-17T12:20:56.718Z,18.5
2023-08-17T12:21:57.707Z,18.5
2023-08-17T12:22:59.659Z,18.6
2023-08-17T12:24:01.701Z,18.6
2023-08-17T12:25:03.681Z,18.6
2023-08-17T12:26:05.690Z,18.6
2023-08-17T12:27:07.669Z,18.6
2023-08-17T12:28:09.692Z,18.7
2023-08-17T12:29:11.710Z,18.7
2023-08-17T12:30:13.721Z,18.7
2023-08-17T12:31:15.796Z,18.7
2023-08-17T12:32:17.751Z,18.7
2023-08-17T12:33:19.707Z,18.8
2023-08-17T12:34:21.941Z,18.8
2023-08-17T12:35:23.670Z,18.9
2023-08-17T12:36:25.771Z,18.9
2023-08-17T12:37:30.595Z,19
2023-08-17T12:38:30.999Z,19
2023-08-17T12:39:33.064Z,19
2023-08-17T12:40:35.016Z,19.1
2023-08-17T12:41:36.968Z,19.1
2023-08-17T12:42:39.008Z,19.1
2023-08-17T12:43:40.974Z,19.2
2023-08-17T12:44:42.960Z,19.2
2023-08-17T12:45:45.090Z,19.3
2023-08-17T12:46:47.002Z,19.3
2023-08-17T12:47:49.074Z,19.4
2023-08-17T12:48:50.958Z,19.5
2023-08-17T12:49:53.361Z,19.5
2023-08-17T12:50:55.158Z,19.6
2023-08-17T12:51:57.052Z,19.7
2023-08-17T12:52:59.174Z,19.7
2023-08-17T12:54:00.957Z,19.9
2023-08-17T12:55:02.946Z,20
2023-08-17T12:56:04.999Z,20
2023-08-17T12:57:10.208Z,20.1
2023-08-17T12:58:14.613Z,20.3
2023-08-17T12:59:15.759Z,20.3
2023-08-17T13:00:17.738Z,20.3
2023-08-17T13:01:19.853Z,20.5
2023-08-17T13:02:21.760Z,20.5
2023-08-17T13:03:24.394Z,20.5
2023-08-17T13:04:25.906Z,20.5
2023-08-17T13:05:29.022Z,20.5
2023-08-17T13:06:39.971Z,20.5
2023-08-17T13:07:50.562Z,20.5
2023-08-17T13:08:52.418Z,20.5
2023-08-17T13:09:54.372Z,20.5
2023-08-17T13:10:56.632Z,20.5
2023-08-17T13:11:58.379Z,20.6
2023-08-17T13:13:00.411Z,20.6
2023-08-17T13:14:02.246Z,20.6
2023-08-17T13:15:04.277Z,20.6
2023-08-17T13:16:06.654Z,20.6
2023-08-17T13:17:08.259Z,20.6
2023-08-17T13:18:10.424Z,20.6
2023-08-17T13:19:12.247Z,20.6
2023-08-17T13:20:14.352Z,20.6
2023-08-17T13:21:16.353Z,20.6
2023-08-17T13:22:18.246Z,20.6
2023-08-17T13:23:20.231Z,20.6
2023-08-17T13:24:22.273Z,20.6
2023-08-17T13:25:24.523Z,20.6
2023-08-17T13:26:26.227Z,20.6
2023-08-17T13:27:28.241Z,20.6
2023-08-17T13:28:30.252Z,20.6
2023-08-17T13:29:32.256Z,20.5
2023-08-17T13:30:34.225Z,20.5
2023-08-17T13:31:36.224Z,20.5
2023-08-17T13:32:38.221Z,20.5
2023-08-17T13:33:40.283Z,20.5
2023-08-17T13:34:42.450Z,20.5
2023-08-17T13:35:44.221Z,20.5
2023-08-17T13:36:46.242Z,20.4
2023-08-17T13:37:48.213Z,20.4
2023-08-17T13:38:50.255Z,20.3
2023-08-17T13:39:52.447Z,20.3
2023-08-17T13:40:54.210Z,20.3
2023-08-17T13:41:56.212Z,20.2
2023-08-17T13:42:58.504Z,20.1
2023-08-17T13:44:00.810Z,20.1
2023-08-17T13:45:02.208Z,20.1
2023-08-17T13:46:04.249Z,20
2023-08-17T13:47:06.448Z,20
2023-08-17T13:48:08.609Z,20
2023-08-17T13:49:10.206Z,20
2023-08-17T13:50:12.211Z,20
2023-08-17T13:51:14.199Z,20
2023-08-17T13:52:16.283Z,20
2023-08-17T13:53:18.232Z,20
2023-08-17T13:54:20.200Z,20
2023-08-17T13:55:22.453Z,20
2023-08-17T13:56:24.559Z,20
2023-08-17T13:57:27.802Z,19.9
2023-08-17T13:58:29.754Z,19.9
2023-08-17T13:59:31.676Z,19.9
2023-08-17T14:00:33.668Z,19.9
2023-08-17T14:01:35.838Z,19.9
2023-08-17T14:02:38.080Z,19.9
2023-08-17T14:03:39.833Z,19.9